createdAt,value
2018-02-05T00:03:27.957Z," 1.37"
2018-02-05T00:08:26.900Z," 1.37"
2018-02-05T00:13:21.645Z," 1.44"
2018-02-05T00:18:18.612Z," 1.44"
2018-02-05T00:23:18.174Z," 1.41"
2018-02-05T00:28:17.274Z," 1.50"
2018-02-05T00:33:18.289Z," 1.49"
2018-02-05T00:38:17.730Z," 1.41"
2018-02-05T00:43:16.248Z," 1.28"
2018-02-05T00:48:16.070Z," 1.34"
2018-02-05T00:53:14.629Z," 1.30"
2018-02-05T00:58:15.265Z," 1.17"
2018-02-05T01:03:13.989Z," 1.13"
2018-02-05T01:08:10.018Z," 1.14"
2018-02-05T01:13:06.335Z," 0.98"
2018-02-05T01:18:05.626Z," 0.96"
2018-02-05T01:23:05.346Z," 0.84"
2018-02-05T01:28:03.824Z," 0.88"
2018-02-05T01:33:03.334Z," 0.91"
2018-02-05T01:38:01.841Z," 0.88"
2018-02-05T01:43:01.114Z," 0.86"
2018-02-05T01:47:57.453Z," 0.78"
2018-02-05T01:52:57.660Z," 0.77"
2018-02-05T01:57:52.386Z," 0.88"
2018-02-05T02:02:52.962Z," 0.87"
2018-02-05T02:07:47.631Z," 0.95"
2018-02-05T02:12:44.636Z," 0.92"
2018-02-05T02:17:41.101Z," 0.94"
2018-02-05T02:22:38.645Z," 0.95"
2018-02-05T02:27:33.988Z," 1.01"
2018-02-05T02:32:29.612Z," 0.80"
2018-02-05T02:37:29.964Z," 0.81"
2018-02-05T02:42:25.688Z," 0.65"
2018-02-05T02:47:25.016Z," 0.60"
2018-02-05T02:52:21.127Z," 0.63"
2018-02-05T03:02:21.602Z," 0.49"
2018-02-05T03:07:18.841Z," 0.46"
2018-02-05T03:12:18.847Z," 0.41"
2018-02-05T03:17:17.441Z," 0.47"
2018-02-05T03:22:13.258Z," 0.49"
2018-02-05T03:27:08.946Z," 0.52"
2018-02-05T03:32:04.571Z," 0.52"
2018-02-05T03:37:01.245Z," 0.50"
2018-02-05T03:41:56.599Z," 0.58"
2018-02-05T03:46:52.212Z," 0.62"
2018-02-05T03:51:53.122Z," 0.69"
2018-02-05T03:56:51.471Z," 0.74"
2018-02-05T04:01:46.419Z," 0.78"
2018-02-05T04:06:46.068Z," 0.96"
2018-02-05T04:11:41.095Z," 1.06"
2018-02-05T04:16:38.152Z," 1.06"
2018-02-05T04:21:33.625Z," 1.10"
2018-02-05T04:26:34.524Z," 1.05"
2018-02-05T04:31:29.126Z," 1.14"
2018-02-05T04:36:25.011Z," 1.24"
2018-02-05T04:41:20.822Z," 1.31"
2018-02-05T04:46:20.747Z," 1.28"
2018-02-05T04:51:15.422Z," 1.34"
2018-02-05T04:56:15.021Z," 1.40"
2018-02-05T05:01:13.794Z," 1.30"
2018-02-05T05:06:08.642Z," 1.28"
2018-02-05T05:11:04.523Z," 1.30"
2018-02-05T05:16:03.801Z," 1.35"
2018-02-05T05:21:00.620Z," 1.45"
2018-02-05T05:25:56.932Z," 1.40"
2018-02-05T05:30:52.450Z," 1.48"
2018-02-05T05:35:52.129Z," 1.45"
2018-02-05T05:40:47.666Z," 1.34"
2018-02-05T05:45:48.716Z," 1.40"
2018-02-05T05:50:44.496Z," 1.40"
2018-02-05T05:55:39.724Z," 1.44"
2018-02-05T06:00:40.335Z," 1.44"
2018-02-05T06:05:35.156Z," 1.50"
2018-02-05T06:10:36.023Z," 1.63"
2018-02-05T06:15:34.574Z," 1.44"
2018-02-05T06:20:34.764Z," 1.42"
2018-02-05T06:25:34.152Z," 1.42"
2018-02-05T06:30:28.971Z," 1.48"
2018-02-05T06:35:28.869Z," 1.44"
2018-02-05T06:40:28.250Z," 1.42"
2018-02-05T06:45:24.029Z," 1.52"
2018-02-05T06:50:23.393Z," 1.55"
2018-02-05T06:55:18.329Z," 1.49"
2018-02-05T07:00:15.011Z," 1.62"
2018-02-05T07:05:14.382Z," 1.53"
2018-02-05T07:10:09.836Z," 1.56"
2018-02-05T07:15:05.341Z," 1.63"
2018-02-05T07:20:04.805Z," 1.68"
2018-02-05T07:24:59.684Z," 1.62"
2018-02-05T07:29:55.454Z," 1.70"
2018-02-05T07:34:51.234Z," 1.63"
2018-02-05T07:39:46.854Z," 1.62"
2018-02-05T07:44:42.702Z," 1.67"
2018-02-05T07:49:42.611Z," 1.74"
2018-02-05T07:54:41.323Z," 1.78"
2018-02-05T07:59:41.060Z," 1.80"
2018-02-05T08:04:39.815Z," 1.85"
2018-02-05T08:09:39.982Z," 1.85"
2018-02-05T08:14:34.614Z," 1.85"
2018-02-05T08:19:35.055Z," 1.85"
2018-02-05T08:24:34.793Z," 1.92"
2018-02-05T08:29:30.524Z," 1.88"
2018-02-05T08:34:25.712Z," 2.00"
2018-02-05T08:39:25.375Z," 2.06"
2018-02-05T08:44:24.292Z," 2.07"
2018-02-05T08:49:25.916Z," 1.97"
2018-02-05T08:54:24.426Z," 2.11"
2018-02-05T08:59:20.217Z," 2.11"
2018-02-05T09:04:16.181Z," 2.15"
2018-02-05T09:09:15.686Z," 2.18"
2018-02-05T09:14:14.665Z," 2.26"
2018-02-05T09:19:13.561Z," 2.22"
2018-02-05T09:24:09.034Z," 2.25"
2018-02-05T09:29:08.657Z," 2.39"
2018-02-05T09:34:03.185Z," 2.38"
2018-02-05T09:39:04.928Z," 2.50"
2018-02-05T09:44:05.170Z," 2.50"
2018-02-05T09:49:05.004Z," 2.44"
2018-02-05T09:54:03.634Z," 2.53"
2018-02-05T09:58:58.739Z," 2.64"
2018-02-05T10:03:59.091Z," 2.61"
2018-02-05T10:08:53.715Z," 2.50"
2018-02-05T10:13:52.900Z," 2.49"
2018-02-05T10:18:53.476Z," 2.49"
2018-02-05T10:23:47.848Z," 2.50"
2018-02-05T10:28:43.515Z," 2.61"
2018-02-05T10:33:43.094Z," 2.57"
2018-02-05T10:38:42.932Z," 2.61"
2018-02-05T10:43:39.036Z," 2.56"
2018-02-05T10:48:38.557Z," 2.62"
2018-02-05T10:53:38.018Z," 2.77"
2018-02-05T10:58:38.906Z," 2.77"
2018-02-05T11:03:37.550Z," 2.80"
2018-02-05T11:08:36.288Z," 2.89"
2018-02-05T11:13:34.904Z," 2.75"
2018-02-05T11:18:33.520Z," 2.79"
2018-02-05T11:23:32.027Z," 2.74"
2018-02-05T11:28:26.931Z," 2.69"
2018-02-05T11:33:27.357Z," 2.80"
2018-02-05T11:38:25.928Z," 2.86"
2018-02-05T11:43:25.487Z," 2.87"
2018-02-05T11:48:25.534Z," 2.89"
2018-02-05T11:53:20.814Z," 2.92"
2018-02-05T11:58:20.859Z," 2.89"
2018-02-05T12:03:19.673Z," 2.90"
2018-02-05T12:08:19.368Z," 2.98"
2018-02-05T12:13:17.984Z," 2.92"
2018-02-05T12:18:16.503Z," 2.87"
2018-02-05T12:23:14.896Z," 2.89"
2018-02-05T12:28:10.632Z," 2.80"
2018-02-05T12:33:10.137Z," 3.05"
2018-02-05T12:38:09.714Z," 3.23"
2018-02-05T12:43:08.532Z," 3.13"
2018-02-05T12:48:03.857Z," 3.45"
2018-02-05T12:53:03.336Z," 3.53"
2018-02-05T12:57:58.810Z," 3.21"
2018-02-05T13:02:59.482Z," 2.97"
2018-02-05T13:07:57.917Z," 3.11"
2018-02-05T13:12:56.748Z," 3.07"
2018-02-05T13:17:55.244Z," 2.97"
2018-02-05T13:22:53.756Z," 2.93"
2018-02-05T13:27:52.289Z," 3.00"
2018-02-05T13:32:48.273Z," 3.05"
2018-02-05T13:37:48.563Z," 3.05"
2018-02-05T13:42:43.240Z," 3.00"
2018-02-05T13:47:43.577Z," 3.08"
2018-02-05T13:52:44.457Z," 2.92"
2018-02-05T13:57:42.732Z," 2.93"
2018-02-05T14:02:41.609Z," 3.01"
2018-02-05T14:07:40.402Z," 3.03"
2018-02-05T14:12:41.116Z," 3.01"
2018-02-05T14:17:39.538Z," 2.97"
2018-02-05T14:22:39.129Z," 3.08"
2018-02-05T14:27:39.500Z," 3.08"
2018-02-05T14:32:40.092Z," 2.93"
2018-02-05T14:37:35.557Z," 2.87"
2018-02-05T14:42:32.673Z," 2.80"
2018-02-05T14:47:32.885Z," 2.90"
2018-02-05T14:52:32.527Z," 2.89"
2018-02-05T14:57:30.923Z," 2.80"
2018-02-05T15:02:26.784Z," 2.85"
2018-02-05T15:07:26.959Z," 2.86"
2018-02-05T15:12:26.514Z," 2.80"
2018-02-05T15:17:25.691Z," 2.75"
2018-02-05T15:22:24.404Z," 2.74"
2018-02-05T15:27:19.164Z," 2.68"
2018-02-05T15:32:19.724Z," 2.65"
2018-02-05T15:37:19.103Z," 2.65"
2018-02-05T15:42:18.577Z," 2.65"
2018-02-05T15:47:18.060Z," 2.69"
2018-02-05T15:52:16.385Z," 2.64"
2018-02-05T15:57:15.110Z," 2.61"
2018-02-05T16:02:15.532Z," 2.57"
2018-02-05T16:07:15.539Z," 2.33"
2018-02-05T16:12:09.738Z," 2.35"
2018-02-05T16:17:06.646Z," 2.17"
2018-02-05T16:22:05.889Z," 2.15"
2018-02-05T16:27:02.361Z," 2.11"
2018-02-05T16:32:02.378Z," 2.00"
2018-02-05T16:36:58.696Z," 1.95"
2018-02-05T16:41:58.936Z," 1.94"
2018-02-05T16:46:58.387Z," 1.78"
2018-02-05T16:51:57.053Z," 1.77"
2018-02-05T16:56:57.073Z," 1.76"
2018-02-05T17:01:55.505Z," 1.68"
2018-02-05T17:06:49.770Z," 1.50"
2018-02-05T17:11:50.095Z," 1.32"
2018-02-05T17:16:48.882Z," 1.31"
2018-02-05T17:21:47.693Z," 1.19"
2018-02-05T17:26:47.629Z," 1.05"
2018-02-05T17:31:46.611Z," 0.98"
2018-02-05T17:36:45.276Z," 1.01"
2018-02-05T17:41:40.082Z," 1.10"
2018-02-05T17:46:40.865Z," 0.96"
2018-02-05T17:51:39.850Z," 0.87"
2018-02-05T17:56:34.790Z," 1.02"
2018-02-05T18:01:34.322Z," 1.02"
2018-02-05T18:06:35.154Z," 0.91"
2018-02-05T18:11:31.713Z," 0.91"
2018-02-05T18:16:32.105Z," 0.94"
2018-02-05T18:21:31.845Z," 0.84"
2018-02-05T18:26:26.251Z," 0.78"
2018-02-05T18:31:25.797Z," 0.60"
2018-02-05T18:36:24.593Z," 0.65"
2018-02-05T18:41:24.954Z," 0.49"
2018-02-05T18:46:24.499Z," 0.65"
2018-02-05T18:51:24.056Z," 0.47"
2018-02-05T18:56:23.689Z," 0.40"
2018-02-05T19:01:25.233Z," 0.46"
2018-02-05T19:06:23.670Z," 0.63"
2018-02-05T19:11:26.493Z," 0.65"
2018-02-05T19:16:26.140Z," 0.62"
2018-02-05T19:21:24.688Z," 0.59"
2018-02-05T19:26:23.424Z," 0.49"
2018-02-05T19:31:23.411Z," 0.52"
2018-02-05T19:36:22.326Z," 0.56"
2018-02-05T19:41:22.055Z," 0.50"
2018-02-05T19:46:17.661Z," 0.43"
2018-02-05T19:51:17.092Z," 0.32"
2018-02-05T19:56:15.873Z," 0.22"
2018-02-05T20:01:15.607Z," 0.11"
2018-02-05T20:06:15.360Z," 0.05"
2018-02-05T20:11:14.243Z," 0.03"
2018-02-05T20:16:12.879Z," 0.04"
2018-02-05T20:21:11.976Z,-0.14
2018-02-05T20:26:12.409Z,-0.17
2018-02-05T20:31:11.033Z,-0.11
2018-02-05T20:36:09.971Z,-0.14
2018-02-05T20:41:09.594Z,-0.21
2018-02-05T20:46:08.099Z,-0.26
2018-02-05T20:51:09.990Z,-0.20
2018-02-05T20:56:08.819Z,-0.35
2018-02-05T21:01:07.490Z,-0.28
2018-02-05T21:06:07.267Z,-0.21
2018-02-05T21:11:05.466Z,-0.10
2018-02-05T21:16:04.162Z,-0.18
2018-02-05T21:21:02.832Z,-0.25
2018-02-05T21:26:01.680Z,-0.26
2018-02-05T21:31:02.236Z,-0.34
2018-02-05T21:36:01.201Z,-0.47
2018-02-05T21:40:59.909Z,-0.59
2018-02-05T21:45:58.568Z,-0.46
2018-02-05T21:50:58.640Z,-0.49
2018-02-05T21:56:00.077Z,-0.57
2018-02-05T22:00:59.473Z,-0.53
2018-02-05T22:05:58.590Z,-0.57
2018-02-05T22:10:57.265Z,-0.56
2018-02-05T22:15:55.955Z,-0.71
2018-02-05T22:20:52.706Z,-0.78
2018-02-05T22:25:51.748Z,-0.62
2018-02-05T22:30:47.884Z,-0.70
2018-02-05T22:35:44.188Z,-0.78
2018-02-05T22:40:43.467Z,-0.72
2018-02-05T22:45:38.266Z,-0.90
2018-02-05T22:50:38.706Z,-0.96
2018-02-05T22:55:34.926Z,-1.02
2018-02-05T23:00:30.346Z,-0.83
2018-02-05T23:05:27.062Z,-0.80
2018-02-05T23:10:26.542Z,-0.77
2018-02-05T23:15:22.281Z,-0.85
2018-02-05T23:20:17.562Z,-0.83
2018-02-05T23:25:13.362Z,-0.97
2018-02-05T23:30:09.033Z,-1.07
2018-02-05T23:35:09.660Z,-1.07
2018-02-05T23:40:08.235Z,-1.23
2018-02-05T23:45:02.677Z,-1.19
2018-02-05T23:50:02.217Z,-1.22
2018-02-05T23:54:58.103Z,-1.22
2018-02-05T23:59:58.491Z,-1.37
